Time;durP1;ratioP1;P1;durP2;ratioP2;P2;SDS_P1;SDS_P2;PMS_P1;PMS_P2;Temp;Humidity;BMP_temperature;BMP_pressure;BME280_temperature;BME280_humidity;BME280_pressure;Samples;Min_cycle;Max_cycle;Signal;HPM_P1;HPM_P2
2021/05/27 00:00:37;;;;;;;4.67;3.40;;;11.60;99.90;;;;;;5097559;28;20488;-68
2021/05/27 00:03:05;;;;;;;4.67;3.63;;;11.60;99.90;;;;;;5097859;28;20453;-67
2021/05/27 00:05:31;;;;;;;3.87;3.30;;;11.60;99.90;;;;;;5097521;28;20531;-69
2021/05/27 00:07:58;;;;;;;3.87;3.47;;;11.60;99.90;;;;;;5097769;28;20460;-67
2021/05/27 00:10:26;;;;;;;3.50;3.20;;;11.50;99.90;;;;;;5097374;28;20480;-67
2021/05/27 00:12:53;;;;;;;3.50;3.20;;;11.50;99.90;;;;;;5097668;28;20472;-67
2021/05/27 00:15:21;;;;;;;4.00;3.60;;;11.50;99.90;;;;;;5098069;28;20786;-68
2021/05/27 00:17:48;;;;;;;3.90;3.20;;;11.50;99.90;;;;;;5097559;28;20477;-68
2021/05/27 00:20:16;;;;;;;4.33;3.10;;;11.50;99.90;;;;;;5097716;28;20453;-68
2021/05/27 00:22:43;;;;;;;3.10;2.80;;;11.50;99.90;;;;;;5098874;28;20457;-67
2021/05/27 00:25:11;;;;;;;4.00;3.60;;;11.50;99.90;;;;;;5097893;28;20454;-67
2021/05/27 00:27:38;;;;;;;3.83;3.27;;;11.50;99.90;;;;;;5097243;28;20473;-67
2021/05/27 00:30:06;;;;;;;3.50;3.20;;;11.50;99.90;;;;;;5097245;28;20877;-69
2021/05/27 00:32:32;;;;;;;4.90;3.67;;;11.40;99.90;;;;;;5097237;28;20492;-69
2021/05/27 00:34:59;;;;;;;3.53;2.90;;;11.40;99.90;;;;;;5097083;28;20464;-69
2021/05/27 00:37:26;;;;;;;5.40;3.80;;;11.40;99.90;;;;;;5096845;28;20458;-69
2021/05/27 00:39:52;;;;;;;3.93;3.37;;;11.40;99.90;;;;;;5097005;28;20457;-69
2021/05/27 00:42:19;;;;;;;5.50;3.30;;;11.40;99.90;;;;;;5097324;28;20780;-69
2021/05/27 00:44:58;;;;;;;3.83;3.40;;;11.30;99.90;;;;;;5097198;28;20457;-68
2021/05/27 00:47:24;;;;;;;3.93;3.63;;;11.30;99.90;;;;;;5097002;28;20916;-68
2021/05/27 00:49:51;;;;;;;4.47;3.83;;;11.20;99.90;;;;;;5097058;28;20453;-68
2021/05/27 00:52:17;;;;;;;3.97;3.60;;;11.20;99.90;;;;;;5097181;28;20484;-68
2021/05/27 00:54:44;;;;;;;4.10;3.80;;;11.20;99.90;;;;;;5096918;28;20464;-67
2021/05/27 00:57:17;;;;;;;3.70;3.40;;;11.20;99.90;;;;;;5096755;28;20457;-68
2021/05/27 00:59:44;;;;;;;4.40;3.60;;;11.20;99.90;;;;;;5096627;28;20446;-68
2021/05/27 01:02:10;;;;;;;4.63;3.93;;;11.20;99.90;;;;;;5096777;28;20453;-68
2021/05/27 01:04:36;;;;;;;4.40;4.00;;;11.20;99.90;;;;;;5097578;28;20469;-69
2021/05/27 01:07:02;;;;;;;3.87;3.53;;;11.20;99.90;;;;;;5097166;28;20446;-67
2021/05/27 01:09:28;;;;;;;5.20;4.20;;;11.10;99.90;;;;;;5096898;28;20511;-69
2021/05/27 01:11:55;;;;;;;9.90;3.53;;;11.20;99.90;;;;;;5096757;28;20442;-68
2021/05/27 01:17:03;;;;;;;5.73;4.13;;;11.10;99.90;;;;;;5095630;28;20445;-68
2021/05/27 01:19:29;;;;;;;3.90;3.50;;;11.10;99.90;;;;;;5096233;28;20800;-68
2021/05/27 01:21:56;;;;;;;4.20;3.80;;;11.10;99.90;;;;;;5095999;28;20457;-68
2021/05/27 01:24:23;;;;;;;4.13;3.83;;;11.10;99.90;;;;;;5096130;28;20802;-68
2021/05/27 01:26:50;;;;;;;4.33;4.00;;;11.10;99.90;;;;;;5095889;28;20453;-68
2021/05/27 01:29:16;;;;;;;4.30;3.40;;;11.10;99.90;;;;;;5096135;28;20450;-68
2021/05/27 01:31:42;;;;;;;4.90;4.20;;;11.00;99.90;;;;;;5095541;28;20481;-68
2021/05/27 01:34:10;;;;;;;5.87;4.20;;;11.00;99.90;;;;;;5095988;28;20438;-68
2021/05/27 01:36:36;;;;;;;4.30;3.80;;;11.00;99.90;;;;;;5096051;28;20583;-68
2021/05/27 01:39:09;;;;;;;4.83;4.33;;;11.00;99.90;;;;;;5095877;28;20939;-68
2021/05/27 01:41:35;;;;;;;4.70;4.30;;;11.00;99.90;;;;;;5095797;28;20450;-68
2021/05/27 01:44:02;;;;;;;4.13;3.83;;;11.00;99.90;;;;;;5095886;28;20910;-68
2021/05/27 01:46:29;;;;;;;5.93;4.13;;;11.00;99.90;;;;;;5095540;28;20460;-68
2021/05/27 01:48:55;;;;;;;4.60;4.10;;;11.00;99.90;;;;;;5095506;28;20902;-68
2021/05/27 01:51:21;;;;;;;4.60;4.20;;;11.00;99.90;;;;;;5096215;28;20457;-68
2021/05/27 01:53:47;;;;;;;7.60;4.83;;;11.00;99.90;;;;;;5095716;28;20941;-68
2021/05/27 01:56:15;;;;;;;4.73;4.33;;;11.00;99.90;;;;;;5096194;28;20461;-68
2021/05/27 01:58:41;;;;;;;4.43;4.00;;;10.90;99.90;;;;;;5095617;28;20578;-68
2021/05/27 02:01:07;;;;;;;4.50;4.10;;;10.90;99.90;;;;;;5095634;28;20458;-68
2021/05/27 02:03:34;;;;;;;4.57;4.10;;;10.90;99.90;;;;;;5095855;28;20457;-68
2021/05/27 02:06:01;;;;;;;4.40;4.00;;;10.90;99.90;;;;;;5095423;28;20918;-69
2021/05/27 02:08:27;;;;;;;3.97;3.67;;;10.80;99.90;;;;;;5095534;28;20449;-68
2021/05/27 02:10:53;;;;;;;4.60;4.20;;;10.80;99.90;;;;;;5095551;28;20462;-68
2021/05/27 02:13:21;;;;;;;4.33;3.93;;;10.80;99.90;;;;;;5095746;28;20778;-68
2021/05/27 02:15:47;;;;;;;7.50;4.90;;;10.70;99.90;;;;;;5095765;28;20475;-68
2021/05/27 02:18:13;;;;;;;3.97;3.67;;;10.70;99.90;;;;;;5095751;28;20491;-68
2021/05/27 02:20:39;;;;;;;4.37;3.93;;;10.60;99.90;;;;;;5095469;28;20458;-68
2021/05/27 02:23:07;;;;;;;4.77;4.37;;;10.60;99.90;;;;;;5095979;28;20932;-68
2021/05/27 02:25:33;;;;;;;7.90;4.83;;;10.60;99.90;;;;;;5100765;28;20454;-68
2021/05/27 02:27:59;;;;;;;4.73;4.33;;;10.60;99.90;;;;;;5097870;28;20825;-68
2021/05/27 02:30:26;;;;;;;5.60;5.00;;;10.50;99.90;;;;;;5097152;28;20518;-68
2021/05/27 02:32:53;;;;;;;8.90;4.53;;;10.50;99.90;;;;;;5098888;28;21030;-68
2021/05/27 02:35:19;;;;;;;5.00;4.60;;;10.50;99.90;;;;;;5099259;28;20940;-68
2021/05/27 02:37:45;;;;;;;5.57;5.17;;;10.50;99.90;;;;;;5099883;28;20481;-68
2021/05/27 02:40:12;;;;;;;5.00;4.60;;;10.50;99.90;;;;;;5099657;28;20834;-68
2021/05/27 02:42:39;;;;;;;6.10;5.60;;;10.60;99.90;;;;;;5100276;28;20453;-68
2021/05/27 02:45:05;;;;;;;5.70;5.20;;;10.50;99.90;;;;;;5104660;28;20910;-68
2021/05/27 02:47:33;;;;;;;5.97;5.43;;;10.50;99.90;;;;;;5102893;28;20795;-68
2021/05/27 02:49:59;;;;;;;6.50;5.77;;;10.50;99.90;;;;;;5105195;28;20454;-68
2021/05/27 02:52:25;;;;;;;7.00;5.67;;;10.50;99.90;;;;;;5107483;28;20483;-68
2021/05/27 02:54:51;;;;;;;6.93;5.67;;;10.50;99.90;;;;;;5105363;28;20449;-68
2021/05/27 02:57:17;;;;;;;6.63;5.07;;;10.50;99.90;;;;;;5105843;28;20453;-68
2021/05/27 02:59:44;;;;;;;5.97;5.37;;;10.50;99.90;;;;;;5105486;28;21018;-68
2021/05/27 03:02:10;;;;;;;6.47;5.87;;;10.50;99.90;;;;;;5110052;28;20453;-68
2021/05/27 03:04:37;;;;;;;6.30;5.70;;;10.50;99.90;;;;;;5108195;28;20479;-68
2021/05/27 03:07:06;;;;;;;7.37;5.73;;;10.50;99.90;;;;;;5109621;28;20927;-68
2021/05/27 03:09:32;;;;;;;6.77;5.83;;;10.50;99.90;;;;;;5106175;28;20453;-68
2021/05/27 03:11:58;;;;;;;5.33;4.83;;;10.50;99.90;;;;;;5103784;28;20480;-68
2021/05/27 03:14:24;;;;;;;6.23;5.63;;;10.50;99.90;;;;;;5104220;28;20453;-68
2021/05/27 03:16:51;;;;;;;6.03;5.43;;;10.50;99.90;;;;;;5106255;28;20467;-68
2021/05/27 03:19:17;;;;;;;7.37;6.10;;;10.50;99.90;;;;;;5104938;28;20477;-68
2021/05/27 03:21:44;;;;;;;5.97;5.37;;;10.50;99.90;;;;;;5104805;28;20453;-68
2021/05/27 03:24:10;;;;;;;6.10;5.60;;;10.50;99.90;;;;;;5104466;28;20465;-68
2021/05/27 03:26:37;;;;;;;5.57;5.07;;;10.50;99.90;;;;;;5105081;28;20457;-67
2021/05/27 03:29:04;;;;;;;7.20;6.07;;;10.50;99.90;;;;;;5103412;28;20906;-68
2021/05/27 03:31:30;;;;;;;5.80;5.30;;;10.50;99.90;;;;;;5103150;28;20811;-68
2021/05/27 03:33:56;;;;;;;6.73;5.30;;;10.50;99.90;;;;;;5103223;28;20441;-68
2021/05/27 03:36:22;;;;;;;6.00;5.50;;;10.60;99.90;;;;;;5105772;28;20457;-68
2021/05/27 03:38:49;;;;;;;5.70;5.10;;;10.60;99.90;;;;;;5104107;28;20484;-68
2021/05/27 03:41:16;;;;;;;5.90;5.30;;;10.70;99.90;;;;;;5106805;28;20457;-68
2021/05/27 03:43:42;;;;;;;7.00;5.00;;;10.70;99.90;;;;;;5106093;28;20538;-68
2021/05/27 03:46:08;;;;;;;6.33;4.80;;;10.70;99.90;;;;;;5105188;28;20457;-68
2021/05/27 03:48:34;;;;;;;6.73;5.67;;;10.70;99.90;;;;;;5106540;28;20453;-68
2021/05/27 03:51:00;;;;;;;6.90;5.33;;;10.80;99.90;;;;;;5106202;28;20787;-69
2021/05/27 03:53:27;;;;;;;5.40;4.90;;;10.80;99.90;;;;;;5101280;28;20449;-68
2021/05/27 03:55:54;;;;;;;5.70;5.20;;;10.80;99.90;;;;;;5098562;28;20452;-68
2021/05/27 04:01:04;;;;;;;5.60;5.10;;;10.80;99.90;;;;;;5103296;28;20451;-68
2021/05/27 04:07:06;;;;;;;5.73;4.90;;;10.80;99.90;;;;;;5101765;28;20769;-68
2021/05/27 04:09:03;;;;;;;5.40;4.90;;;10.90;99.90;;;;;;5103585;28;20417;-69
2021/05/27 04:11:30;;;;;;;5.97;5.40;;;10.90;99.90;;;;;;5103391;28;20453;-69
2021/05/27 04:13:56;;;;;;;6.23;5.60;;;10.90;99.90;;;;;;5102511;28;20454;-69
2021/05/27 04:16:22;;;;;;;5.20;4.70;;;11.00;99.90;;;;;;5102950;28;20480;-69
2021/05/27 04:18:49;;;;;;;5.83;5.20;;;11.00;99.90;;;;;;5103779;28;20481;-68
2021/05/27 04:21:18;;;;;;;5.67;5.07;;;11.00;99.90;;;;;;5101233;28;20484;-69
2021/05/27 04:23:44;;;;;;;5.10;4.60;;;11.00;99.90;;;;;;5103432;28;20464;-69
2021/05/27 04:26:12;;;;;;;7.17;5.50;;;11.10;99.90;;;;;;5102976;28;20774;-69
2021/05/27 04:28:40;;;;;;;6.50;5.90;;;11.10;99.90;;;;;;5102888;28;20453;-69
2021/05/27 04:31:11;;;;;;;5.53;4.97;;;11.10;99.90;;;;;;5103707;28;20518;-69
2021/05/27 04:33:40;;;;;;;5.83;5.23;;;11.20;99.90;;;;;;5105478;28;20496;-68
2021/05/27 04:36:08;;;;;;;5.40;4.87;;;11.20;99.90;;;;;;5103262;28;20511;-68
2021/05/27 04:38:35;;;;;;;6.13;5.57;;;11.20;99.90;;;;;;5103192;28;20956;-69
2021/05/27 04:41:01;;;;;;;7.07;5.80;;;11.10;99.90;;;;;;5103987;28;20449;-69
2021/05/27 04:43:27;;;;;;;7.17;5.13;;;11.10;99.90;;;;;;5103537;28;20468;-69
2021/05/27 04:45:54;;;;;;;5.13;4.73;;;11.20;99.90;;;;;;5106108;28;20445;-68
2021/05/27 04:48:21;;;;;;;5.80;4.67;;;11.20;99.90;;;;;;5103758;28;20460;-69
2021/05/27 04:50:49;;;;;;;5.60;4.93;;;11.20;99.90;;;;;;5100235;28;20454;-68
2021/05/27 04:53:16;;;;;;;5.87;5.23;;;11.20;99.90;;;;;;5102033;28;20454;-68
2021/05/27 04:55:42;;;;;;;5.87;5.03;;;11.20;99.90;;;;;;5100857;28;20453;-68
2021/05/27 04:58:09;;;;;;;5.60;5.00;;;11.20;99.90;;;;;;5105548;28;21021;-68
2021/05/27 05:00:36;;;;;;;5.70;5.20;;;11.30;99.90;;;;;;5108512;28;20529;-68
2021/05/27 05:03:04;;;;;;;9.73;5.23;;;11.30;99.90;;;;;;5107398;28;20453;-69
2021/05/27 05:05:32;;;;;;;5.50;5.00;;;11.40;99.90;;;;;;5104674;28;20495;-68
2021/05/27 05:07:58;;;;;;;5.43;4.63;;;11.40;99.90;;;;;;5101653;28;20458;-68
2021/05/27 05:10:26;;;;;;;5.17;4.77;;;11.40;99.90;;;;;;5100532;28;20532;-68
2021/05/27 05:12:53;;;;;;;5.73;5.20;;;11.40;99.90;;;;;;5098293;28;20453;-68
2021/05/27 05:15:22;;;;;;;5.57;5.07;;;11.40;99.90;;;;;;5096494;28;20453;-68
2021/05/27 05:17:49;;;;;;;5.20;4.70;;;11.50;99.90;;;;;;5096067;28;20926;-68
2021/05/27 05:20:18;;;;;;;6.77;4.60;;;11.50;99.90;;;;;;5096918;28;20460;-68
2021/05/27 05:22:44;;;;;;;5.60;5.07;;;11.60;99.90;;;;;;5096071;28;20530;-69
2021/05/27 05:25:11;;;;;;;5.07;4.57;;;11.70;99.90;;;;;;5096275;28;20453;-68
2021/05/27 05:27:38;;;;;;;5.03;4.60;;;11.80;99.90;;;;;;5096665;28;20459;-68
2021/05/27 05:30:05;;;;;;;5.17;4.67;;;11.90;99.90;;;;;;5096759;28;20460;-68
2021/05/27 05:32:33;;;;;;;5.30;4.80;;;12.00;99.90;;;;;;5096374;28;20481;-68
2021/05/27 05:35:00;;;;;;;4.90;4.50;;;12.00;99.90;;;;;;5095050;28;20924;-68
2021/05/27 05:37:28;;;;;;;4.30;4.00;;;12.00;99.90;;;;;;5095296;28;20468;-69
2021/05/27 05:39:54;;;;;;;6.63;4.33;;;12.00;99.90;;;;;;5094899;28;20488;-69
2021/05/27 05:42:20;;;;;;;5.97;4.57;;;12.10;99.90;;;;;;5095111;28;20472;-69
2021/05/27 05:44:47;;;;;;;4.90;4.50;;;12.20;99.90;;;;;;5095166;28;20845;-68
2021/05/27 05:47:13;;;;;;;4.30;4.00;;;12.10;99.90;;;;;;5095007;28;20468;-68
2021/05/27 05:49:39;;;;;;;4.30;3.90;;;12.20;99.90;;;;;;5094792;28;20458;-68
2021/05/27 05:52:08;;;;;;;4.20;3.80;;;12.20;99.90;;;;;;5094753;28;20487;-68
2021/05/27 05:54:35;;;;;;;4.20;3.80;;;12.30;99.90;;;;;;5095067;28;20461;-68
2021/05/27 05:57:01;;;;;;;4.20;3.87;;;12.40;99.90;;;;;;5095457;28;20469;-69
2021/05/27 05:59:28;;;;;;;5.33;3.60;;;12.40;99.90;;;;;;5094925;28;20844;-69
2021/05/27 06:01:55;;;;;;;4.80;3.93;;;12.40;99.90;;;;;;5095205;28;20465;-69
2021/05/27 06:04:21;;;;;;;4.30;3.90;;;12.50;99.90;;;;;;5095659;28;20453;-68
2021/05/27 06:06:47;;;;;;;6.40;3.60;;;12.60;99.90;;;;;;5095586;28;20827;-68
2021/05/27 06:09:13;;;;;;;7.00;4.03;;;12.70;99.90;;;;;;5095795;28;20492;-68
2021/05/27 06:11:41;;;;;;;7.93;3.40;;;12.70;99.90;;;;;;5096236;28;20921;-67
2021/05/27 06:14:08;;;;;;;7.30;3.80;;;12.70;99.90;;;;;;5098383;28;20479;-68
2021/05/27 06:16:34;;;;;;;4.30;3.50;;;12.70;99.90;;;;;;5095693;28;20453;-67
2021/05/27 06:19:00;;;;;;;3.27;2.97;;;12.80;99.90;;;;;;5093777;28;20786;-68
2021/05/27 06:21:26;;;;;;;3.40;3.10;;;12.80;99.90;;;;;;5095608;28;20453;-68
2021/05/27 06:23:55;;;;;;;3.70;3.40;;;12.90;99.90;;;;;;5098078;28;20535;-68
2021/05/27 06:26:21;;;;;;;4.90;3.20;;;13.00;99.90;;;;;;5096697;28;20518;-68
2021/05/27 06:28:48;;;;;;;3.57;3.27;;;13.00;99.90;;;;;;5096826;28;20449;-68
2021/05/27 06:31:14;;;;;;;3.67;3.37;;;13.00;99.90;;;;;;5099769;28;21005;-69
2021/05/27 06:33:40;;;;;;;4.17;3.50;;;13.10;99.90;;;;;;5058251;28;1152388;-70
2021/05/27 06:36:07;;;;;;;4.30;3.90;;;13.00;99.90;;;;;;5098259;28;20207;-69
2021/05/27 06:38:36;;;;;;;3.80;3.30;;;13.10;99.90;;;;;;5096626;28;20530;-69
2021/05/27 06:41:02;;;;;;;4.33;3.47;;;13.00;99.90;;;;;;5096301;28;20479;-69
2021/05/27 06:43:29;;;;;;;3.60;3.30;;;13.10;99.90;;;;;;5095847;28;20457;-69
2021/05/27 06:45:57;;;;;;;4.10;3.70;;;13.00;99.90;;;;;;5095534;28;20453;-68
2021/05/27 06:48:23;;;;;;;4.57;3.80;;;13.00;99.90;;;;;;5095030;28;20517;-69
2021/05/27 06:50:50;;;;;;;12.13;4.90;;;12.90;99.90;;;;;;5095336;28;20468;-68
2021/05/27 06:53:17;;;;;;;4.30;3.40;;;12.90;99.90;;;;;;5094936;28;20958;-68
2021/05/27 06:55:44;;;;;;;8.57;4.63;;;12.70;99.90;;;;;;5095982;28;20461;-67
2021/05/27 06:58:11;;;;;;;4.30;3.90;;;12.70;99.90;;;;;;5095611;28;20477;-69
2021/05/27 07:00:39;;;;;;;4.13;3.77;;;12.70;99.90;;;;;;5095608;28;20457;-67
2021/05/27 07:03:07;;;;;;;4.57;4.27;;;12.70;99.90;;;;;;5095349;28;20457;-69
2021/05/27 07:05:34;;;;;;;4.37;4.00;;;12.70;99.90;;;;;;5094845;28;20457;-69
2021/05/27 07:08:02;;;;;;;3.90;3.50;;;12.80;99.90;;;;;;5095501;28;20832;-68
2021/05/27 07:10:30;;;;;;;4.97;4.07;;;13.00;99.90;;;;;;5095497;28;20610;-69
2021/05/27 07:12:58;;;;;;;3.77;3.50;;;13.20;99.90;;;;;;5095354;28;20460;-69
2021/05/27 07:15:26;;;;;;;5.63;3.90;;;13.30;99.90;;;;;;5096306;28;20491;-71
2021/05/27 07:17:53;;;;;;;3.60;3.30;;;13.40;99.90;;;;;;5096642;28;20457;-70
2021/05/27 07:20:23;;;;;;;3.27;2.97;;;13.50;99.90;;;;;;5097226;28;20457;-71
2021/05/27 07:22:50;;;;;;;4.10;3.70;;;13.50;99.90;;;;;;5097515;28;20739;-71
2021/05/27 07:25:16;;;;;;;3.60;3.30;;;13.60;99.90;;;;;;5096617;28;20453;-70
2021/05/27 07:27:44;;;;;;;2.93;2.73;;;13.50;99.90;;;;;;5095957;28;20465;-70
2021/05/27 07:30:11;;;;;;;3.10;2.80;;;13.50;99.90;;;;;;5098840;28;20546;-70
2021/05/27 07:32:37;;;;;;;4.93;3.00;;;13.40;99.90;;;;;;5100217;28;20507;-70
2021/05/27 07:35:04;;;;;;;3.10;2.87;;;13.30;99.90;;;;;;5100544;28;20453;-71
2021/05/27 07:37:32;;;;;;;4.67;2.37;;;13.20;99.90;;;;;;5099632;28;20518;-70
2021/05/27 07:39:58;;;;;;;2.80;2.40;;;13.10;99.90;;;;;;5100283;28;20484;-71
2021/05/27 07:42:24;;;;;;;2.57;2.30;;;13.10;99.90;;;;;;5100623;28;20454;-70
2021/05/27 07:44:51;;;;;;;2.40;2.20;;;13.10;99.90;;;;;;5100361;28;20465;-71
2021/05/27 07:47:17;;;;;;;2.30;2.10;;;13.20;99.90;;;;;;5101077;28;20472;-71
2021/05/27 07:49:43;;;;;;;2.63;2.40;;;13.20;99.90;;;;;;5101345;28;20945;-71
2021/05/27 07:52:09;;;;;;;2.53;2.23;;;13.30;99.90;;;;;;5101393;28;20450;-72
2021/05/27 07:54:36;;;;;;;2.27;2.07;;;13.30;99.90;;;;;;5102306;28;20453;-71
2021/05/27 07:57:03;;;;;;;2.77;2.00;;;13.40;99.90;;;;;;5102691;28;20468;-71
2021/05/27 07:59:29;;;;;;;2.13;1.80;;;13.40;99.90;;;;;;5104472;28;20530;-71
2021/05/27 08:01:55;;;;;;;4.40;1.93;;;13.50;99.90;;;;;;5102891;28;20449;-71
2021/05/27 08:04:22;;;;;;;2.20;2.10;;;13.60;99.90;;;;;;5102974;28;20445;-71
2021/05/27 08:06:48;;;;;;;2.50;2.30;;;13.60;99.90;;;;;;5102287;28;20465;-71
2021/05/27 08:09:14;;;;;;;2.57;2.10;;;13.60;99.90;;;;;;5101588;28;20457;-71
2021/05/27 08:11:42;;;;;;;3.17;2.87;;;13.50;99.90;;;;;;5102437;28;20468;-70
2021/05/27 08:14:08;;;;;;;2.53;2.33;;;13.40;99.90;;;;;;5102802;28;20457;-71
2021/05/27 08:16:35;;;;;;;2.60;2.40;;;13.50;99.90;;;;;;5102655;28;20468;-70
2021/05/27 08:19:01;;;;;;;3.50;1.73;;;13.60;99.90;;;;;;5102608;28;20485;-71
2021/05/27 08:21:28;;;;;;;1.83;1.60;;;13.70;99.90;;;;;;5102609;28;20457;-71
2021/05/27 08:23:55;;;;;;;2.00;1.90;;;13.80;99.90;;;;;;5102589;28;20465;-70
2021/05/27 08:26:24;;;;;;;2.63;2.20;;;14.00;99.90;;;;;;5102261;28;20509;-70
2021/05/27 08:28:52;;;;;;;2.17;2.00;;;14.10;99.90;;;;;;5102586;28;20458;-71
2021/05/27 08:31:19;;;;;;;2.23;2.03;;;14.20;99.90;;;;;;5102364;28;20453;-71
2021/05/27 08:33:47;;;;;;;2.57;2.27;;;14.10;99.90;;;;;;5101945;28;20560;-71
2021/05/27 08:36:14;;;;;;;8.13;1.93;;;14.10;99.90;;;;;;5101792;28;20457;-71
2021/05/27 08:38:40;;;;;;;2.40;2.20;;;14.10;99.90;;;;;;5102587;28;20481;-71
2021/05/27 08:41:06;;;;;;;2.00;1.90;;;13.90;99.90;;;;;;5101088;28;20453;-71
2021/05/27 08:43:33;;;;;;;4.97;3.17;;;13.70;99.90;;;;;;5103538;28;20457;-70
2021/05/27 08:46:03;;;;;;;3.60;2.57;;;13.40;99.90;;;;;;5104042;28;20460;-70
2021/05/27 08:48:29;;;;;;;2.30;2.10;;;13.10;99.90;;;;;;5104135;28;20467;-70
2021/05/27 08:50:56;;;;;;;3.23;2.90;;;12.80;99.90;;;;;;5104953;28;20467;-70
2021/05/27 08:53:22;;;;;;;3.20;2.77;;;12.50;99.90;;;;;;5103730;28;20496;-70
2021/05/27 08:55:50;;;;;;;3.17;2.90;;;12.10;99.90;;;;;;5102402;28;20457;-70
2021/05/27 08:58:16;;;;;;;4.60;4.03;;;11.90;99.90;;;;;;5105174;28;20453;-70
2021/05/27 09:00:43;;;;;;;5.90;5.40;;;11.70;99.90;;;;;;5107338;28;20457;-70
2021/05/27 09:03:10;;;;;;;6.37;5.77;;;11.70;99.90;;;;;;5104828;28;20457;-70
2021/05/27 09:05:40;;;;;;;6.90;6.30;;;11.60;99.90;;;;;;5103611;28;20457;-70
2021/05/27 09:08:08;;;;;;;5.13;4.57;;;11.60;99.90;;;;;;5104427;28;20917;-70
2021/05/27 09:10:43;;;;;;;5.90;4.60;;;11.60;99.90;;;;;;5105769;28;20818;-70
2021/05/27 09:13:11;;;;;;;4.80;3.90;;;11.60;99.90;;;;;;5105103;28;20463;-70
2021/05/27 09:15:37;;;;;;;4.10;3.70;;;11.60;99.90;;;;;;5105322;28;20472;-71
2021/05/27 09:18:04;;;;;;;3.70;3.40;;;11.60;99.90;;;;;;5104865;28;20921;-70
2021/05/27 09:20:32;;;;;;;5.33;4.47;;;11.60;99.90;;;;;;5105298;28;20457;-70
2021/05/27 09:23:14;;;;;;;7.33;5.50;;;11.60;99.90;;;;;;5105538;28;20568;-70
2021/05/27 09:25:42;;;;;;;5.20;4.80;;;11.60;99.90;;;;;;5104104;28;20441;-71
2021/05/27 09:28:10;;;;;;;4.57;4.13;;;11.70;99.90;;;;;;5103113;28;20453;-71
2021/05/27 09:30:45;;;;;;;7.63;4.50;;;11.80;99.90;;;;;;5104461;28;20457;-71
2021/05/27 09:33:13;;;;;;;3.17;2.97;;;12.00;99.90;;;;;;5103635;28;20484;-71
2021/05/27 09:35:40;;;;;;;3.67;2.40;;;12.20;99.90;;;;;;5101527;28;20926;-71
2021/05/27 09:38:08;;;;;;;3.20;2.83;;;12.50;99.90;;;;;;5100375;28;20843;-71
2021/05/27 09:40:37;;;;;;;1.90;1.80;;;12.80;99.90;;;;;;5100790;28;20852;-71
2021/05/27 09:43:04;;;;;;;2.00;1.80;;;13.20;99.90;;;;;;5101939;28;20457;-71
2021/05/27 09:45:32;;;;;;;1.70;1.50;;;13.50;99.90;;;;;;5101299;28;20518;-70
2021/05/27 09:48:15;;;;;;;1.57;1.30;;;13.70;99.90;;;;;;5101988;28;20453;-70
2021/05/27 09:50:43;;;;;;;2.03;1.70;;;13.90;99.90;;;;;;5100730;28;20430;-70
2021/05/27 09:53:14;;;;;;;1.70;1.30;;;14.20;99.90;;;;;;5099617;28;20493;-72
2021/05/27 09:55:41;;;;;;;2.07;1.20;;;14.30;99.90;;;;;;5100007;28;21020;-70
2021/05/27 09:58:08;;;;;;;1.27;1.17;;;14.40;99.90;;;;;;5098932;28;20933;-70
2021/05/27 10:00:35;;;;;;;1.53;0.97;;;14.50;99.90;;;;;;5098721;28;20453;-70
2021/05/27 10:03:30;;;;;;;2.57;1.00;;;14.50;99.90;;;;;;5099547;28;20918;-70
2021/05/27 10:05:58;;;;;;;3.00;1.17;;;14.60;99.90;;;;;;5098362;28;20548;-72
2021/05/27 10:08:25;;;;;;;2.33;1.30;;;14.60;99.90;;;;;;5099601;28;20480;-70
2021/05/27 10:10:53;;;;;;;2.33;1.30;;;14.70;99.90;;;;;;5099039;28;20460;-71
2021/05/27 10:13:26;;;;;;;2.53;1.10;;;14.70;99.90;;;;;;5099891;28;20453;-71
2021/05/27 10:15:52;;;;;;;5.67;1.23;;;14.80;99.90;;;;;;5100287;28;20448;-71
2021/05/27 10:18:20;;;;;;;4.50;1.10;;;14.80;99.90;;;;;;5099863;28;20955;-70
2021/05/27 10:20:48;;;;;;;1.63;0.70;;;14.80;99.90;;;;;;5097964;28;20453;-70
2021/05/27 10:23:16;;;;;;;1.00;0.83;;;14.80;99.90;;;;;;5098126;28;20456;-70
2021/05/27 10:25:45;;;;;;;1.10;1.00;;;14.90;99.90;;;;;;5097502;28;20578;-70
2021/05/27 10:28:15;;;;;;;2.17;0.90;;;15.00;99.90;;;;;;5098278;28;20781;-70
2021/05/27 10:30:44;;;;;;;1.80;1.20;;;15.10;99.90;;;;;;5096664;28;20857;-70
2021/05/27 10:33:17;;;;;;;3.30;1.30;;;15.30;99.90;;;;;;5097386;28;20484;-70
2021/05/27 10:35:46;;;;;;;2.47;1.50;;;15.40;99.90;;;;;;5098919;28;20449;-71
2021/05/27 10:38:13;;;;;;;1.53;0.77;;;15.60;99.90;;;;;;5098087;28;20457;-70
2021/05/27 10:40:42;;;;;;;1.63;0.97;;;15.60;99.90;;;;;;5097963;28;20511;-71
2021/05/27 10:43:12;;;;;;;1.80;0.90;;;15.50;99.90;;;;;;5097531;28;20818;-70
2021/05/27 10:46:01;;;;;;;1.20;0.90;;;15.40;99.90;;;;;;5097667;28;20460;-71
2021/05/27 10:48:29;;;;;;;2.17;0.80;;;15.30;99.90;;;;;;5097179;28;20461;-70
2021/05/27 10:51:09;;;;;;;1.10;0.90;;;15.30;99.90;;;;;;5097178;28;20528;-71
2021/05/27 10:54:03;;;;;;;2.57;0.93;;;15.40;99.90;;;;;;5098086;28;20595;-71
2021/05/27 10:56:43;;;;;;;1.00;0.87;;;15.60;99.90;;;;;;5097070;28;20453;-71
2021/05/27 10:59:12;;;;;;;1.17;0.80;;;15.70;99.90;;;;;;5096232;28;20465;-71
2021/05/27 11:02:06;;;;;;;2.90;0.90;;;15.70;99.90;;;;;;5097956;28;20458;-71
2021/05/27 11:04:42;;;;;;;2.37;0.90;;;15.60;99.90;;;;;;5100032;28;20473;-71
2021/05/27 11:07:22;;;;;;;4.00;0.90;;;15.60;99.90;;;;;;5101536;28;20913;-69
2021/05/27 11:09:53;;;;;;;1.73;1.07;;;15.70;99.90;;;;;;5102368;28;20453;-69
2021/05/27 11:12:41;;;;;;;3.43;1.07;;;15.80;99.90;;;;;;5101486;28;20452;-69
2021/05/27 11:15:14;;;;;;;1.30;1.00;;;15.90;99.90;;;;;;5100759;28;20833;-71
2021/05/27 11:18:03;;;;;;;2.00;1.30;;;16.10;99.90;;;;;;5101236;28;20453;-70
2021/05/27 11:20:31;;;;;;;5.10;1.20;;;16.30;99.90;;;;;;5099962;28;20957;-70
2021/05/27 11:23:10;;;;;;;2.13;1.10;;;16.50;99.90;;;;;;5101306;28;20467;-70
2021/05/27 11:25:38;;;;;;;1.50;1.07;;;16.40;99.90;;;;;;5100944;28;20457;-71
2021/05/27 11:28:28;;;;;;;1.40;0.83;;;16.30;99.90;;;;;;5101177;28;20549;-70
2021/05/27 11:30:57;;;;;;;1.37;0.97;;;16.20;99.90;;;;;;5101069;28;20438;-70
2021/05/27 11:33:38;;;;;;;1.90;0.80;;;16.20;99.90;;;;;;5100998;28;20485;-70
2021/05/27 11:36:07;;;;;;;1.20;0.80;;;16.40;99.90;;;;;;5100112;28;20461;-70
2021/05/27 11:38:36;;;;;;;1.10;0.90;;;17.00;99.90;;;;;;5099980;28;20804;-70
2021/05/27 11:41:04;;;;;;;1.30;0.83;;;17.80;99.90;;;;;;5099054;28;20505;-71
2021/05/27 11:43:34;;;;;;;1.30;0.90;;;18.60;99.90;;;;;;5099442;28;20457;-71
2021/05/27 11:46:05;;;;;;;1.00;0.70;;;18.90;99.90;;;;;;5099810;28;20468;-70
2021/05/27 11:48:35;;;;;;;3.20;2.27;;;18.80;99.90;;;;;;5099642;28;20838;-70
2021/05/27 11:51:04;;;;;;;1.10;0.70;;;19.00;99.90;;;;;;5099561;28;20457;-70
2021/05/27 11:53:45;;;;;;;1.80;0.87;;;18.90;99.90;;;;;;5099913;28;20552;-70
2021/05/27 11:56:11;;;;;;;1.40;0.80;;;18.80;99.90;;;;;;5100037;28;20793;-68
2021/05/27 11:58:40;;;;;;;5.27;0.90;;;18.90;99.90;;;;;;5099232;28;20530;-70
2021/05/27 12:01:14;;;;;;;1.93;0.90;;;19.20;99.90;;;;;;5100318;28;20913;-70
2021/05/27 12:03:40;;;;;;;1.13;0.80;;;19.00;99.90;;;;;;5100548;28;20458;-71
2021/05/27 12:06:07;;;;;;;2.67;0.80;;;18.50;99.90;;;;;;5099025;28;20453;-71
2021/05/27 12:08:41;;;;;;;1.37;0.80;;;18.00;99.90;;;;;;5098528;28;20474;-72
2021/05/27 12:11:08;;;;;;;1.40;0.83;;;17.50;99.90;;;;;;5098468;28;20495;-72
2021/05/27 12:13:34;;;;;;;1.30;0.70;;;17.20;99.90;;;;;;5099189;28;20453;-72
2021/05/27 12:16:01;;;;;;;3.67;0.90;;;16.70;99.90;;;;;;5098432;28;20476;-71
2021/05/27 12:18:27;;;;;;;1.20;0.87;;;16.90;99.90;;;;;;5098126;28;20484;-71
2021/05/27 12:20:53;;;;;;;1.00;0.60;;;17.20;99.90;;;;;;5098393;28;20796;-71
2021/05/27 12:23:20;;;;;;;1.10;0.80;;;17.90;99.90;;;;;;5098260;28;20517;-71
2021/05/27 12:25:48;;;;;;;1.40;0.77;;;18.50;99.90;;;;;;5099653;28;20461;-70
2021/05/27 12:28:16;;;;;;;1.50;0.80;;;19.20;99.90;;;;;;5097948;28;20457;-69
2021/05/27 12:30:44;;;;;;;1.10;0.80;;;19.60;99.90;;;;;;5097998;28;20889;-71
2021/05/27 12:33:16;;;;;;;1.20;0.63;;;19.90;99.90;;;;;;5097837;28;20481;-71
2021/05/27 12:35:43;;;;;;;1.00;0.60;;;20.20;99.90;;;;;;5098326;28;20448;-71
2021/05/27 12:38:19;;;;;;;1.23;0.80;;;20.60;99.90;;;;;;5098515;28;20453;-72
2021/05/27 12:40:47;;;;;;;1.33;0.70;;;21.10;99.90;;;;;;5098323;28;20475;-71
2021/05/27 12:43:22;;;;;;;1.00;0.67;;;21.30;99.90;;;;;;5098552;28;20514;-70
2021/05/27 12:45:49;;;;;;;1.63;0.77;;;21.50;1.00;;;;;;5097518;28;20452;-70
2021/05/27 12:48:18;;;;;;;2.63;0.70;;;21.70;1.00;;;;;;5098368;28;20472;-71
2021/05/27 12:50:57;;;;;;;0.90;0.60;;;21.80;1.00;;;;;;5097512;28;20449;-71
2021/05/27 12:53:31;;;;;;;1.20;0.80;;;21.10;1.00;;;;;;5098358;28;20544;-70
2021/05/27 12:56:10;;;;;;;1.10;0.90;;;20.40;1.00;;;;;;5097749;28;20441;-70
2021/05/27 12:58:37;;;;;;;1.00;0.80;;;19.80;1.00;;;;;;5098327;28;20461;-70
2021/05/27 13:01:04;;;;;;;1.90;0.90;;;19.20;1.00;;;;;;5098259;28;20457;-69